Terminal Aerodrome Forecast
Issued by NWS

Home | Current Version | Previous Version | Text Only | Print | Product List | Glossary On
Versions: 1 2 3 4 5 6 7 8 9 10 11 12 13 14
939
FTUS45 KRIW 241120
TAFJAC
TAF
KJAC 241120Z 2412/2512 03004KT P6SM VCFG FEW003
     FM241600 VRB05KT P6SM SCT200
     FM242000 19008KT P6SM FEW070 BKN200
     FM250500 20006KT P6SM VCSH BKN040
     FM250900 20005KT 3SM -SN OVC020
      AMD LTD TO CLD VIS AND WIND=

USA.gov is the U.S. government's official web portal to all federal, state and local government web resources and services.